Hydro, Oklahoma
Current Conditions -  °F | °C
As of 6:55 AM on Friday 19 Dec 2014 (Local Time) from KOJA Reporting Station
Haze Haze  
Wind Chill: -2°   Ceiling: 500
Heat Index:   Visibility: 4mi
Dew Point:   Wind: 6mph
Humidity: 100%   Direction: 90°E
Pressure: 30.22"   Gusts: NA
Location:  35.55°N, 98.58°W
Report Text: KOJA 191255Z AUTO 09005KT 4SM BR OVC005 01/01 A3022 RMK AO2
Loading
Personal Weather Stations






























Interactive Weather Map New forecast layout! Learn more

10-Day Weather Forecast

Advertisements
Track Severe Weather on mobile